Gainesville, TX

2:34 PM CDT on April 26, 2017 (GMT -0500)
Gainesville Municipal

Weather History for KGLE - January, 2014

Change the Weather History Date:

Tuesday, January 7, 2014

  Actual Average (KDTO) Record (KDTO)
Temperature  
Mean Temperature 31 °F -  
Max Temperature 48 °F 53 °F 82 °F (2006)
Min Temperature 14 °F 32 °F 8 °F (2017)
Degree Days  
Heating Degree Days 34    
Moisture  
Dew Point 7 °F    
Average Humidity 42    
Maximum Humidity 75    
Minimum Humidity 14    
Precipitation  
Precipitation 0.00 in - - ()
Sea Level Pressure  
Sea Level Pressure 30.40 in    
Wind  
Wind Speed 8 mph (SSE)    
Max Wind Speed 18 mph    
Max Gust Speed 24 mph    
Visibility 10 miles    
Events      
Averages and records for this station are not official NWS values.
T = Trace of Precipitation, MM = Missing Value Source: NWS Daily Summary

Daily Weather History Graph

Daily Weather History Graph

Search for Another Location

Airport or City:

Trip Planner

Search our weather history database for the weather conditions in past years. The results will help you decide how hot, cold, wet, or windy it might be!

Date:

Astronomy

Jan. 07, 2014 Rise Set
Actual Time 7:34 AM CST 5:36 PM CST
Civil Twilight 7:06 AM CST 6:03 PM CST
Nautical Twilight 6:35 AM CST 6:34 PM CST
Astronomical Twilight 6:05 AM CST 7:04 PM CST
Moon 11:45 AM CST (1/7) No Moon Set
Length of Visible Light 10h 57m
Length of Day
10h 02m
Waxing Crescent, 46% of the Moon is Illuminated
Jan 7
Waxing Crescent
Jan 7
First Quarter
Jan 15
Full
Jan 23
Last Quarter
Jan 30
New

Hourly Weather History & Observations

Time (CST) Temp. Windchill Dew Point Humidity Pressure Visibility Wind Dir Wind Speed Gust Speed Precip Events Conditions
12:15 AM 19.9 °F 13.4 °F 4.1 °F 50% 30.55 in 10.0 mi SW 4.6 mph - N/A   Clear
12:35 AM 21.0 °F 14.6 °F 5.0 °F 50% 30.55 in 10.0 mi SW 4.6 mph - N/A   Clear
12:55 AM 21.0 °F 13.4 °F 5.4 °F 51% 30.54 in 10.0 mi SW 5.8 mph - N/A   Clear
1:15 AM 21.0 °F 16.2 °F 5.7 °F 52% 30.53 in 10.0 mi SW 3.5 mph - N/A   Clear
1:35 AM 19.0 °F - 5.7 °F 56% 30.53 in 10.0 mi Calm Calm - N/A   Clear
1:55 AM 18.9 °F 13.7 °F 5.9 °F 57% 30.54 in 10.0 mi South 3.5 mph - N/A   Clear
2:15 AM 18.5 °F 13.3 °F 6.3 °F 59% 30.54 in 10.0 mi South 3.5 mph - N/A   Clear
2:35 AM 18.5 °F 11.7 °F 7.0 °F 61% 30.54 in 10.0 mi South 4.6 mph - N/A   Clear
2:55 AM 18.3 °F 11.5 °F 7.5 °F 63% 30.53 in 10.0 mi South 4.6 mph - N/A   Clear
3:15 AM 18.5 °F 13.3 °F 8.1 °F 64% 30.53 in 10.0 mi SSE 3.5 mph - N/A   Clear
3:35 AM 18.5 °F 13.3 °F 8.2 °F 64% 30.52 in 10.0 mi SSE 3.5 mph - N/A   Clear
3:55 AM 16.3 °F 7.8 °F 7.3 °F 68% 30.51 in 10.0 mi SSE 5.8 mph - N/A   Clear
4:15 AM 15.8 °F 7.2 °F 7.7 °F 70% 30.51 in 10.0 mi SSE 5.8 mph - N/A   Clear
4:35 AM 15.8 °F 7.2 °F 8.2 °F 72% 30.51 in 10.0 mi SSE 5.8 mph - N/A   Clear
4:55 AM 15.8 °F 8.6 °F 8.2 °F 72% 30.50 in 10.0 mi SSE 4.6 mph - N/A   Clear
5:15 AM 15.8 °F 7.2 °F 8.4 °F 73% 30.50 in 10.0 mi SSE 5.8 mph - N/A   Clear
5:35 AM 14.7 °F 5.9 °F 7.5 °F 73% 30.50 in 10.0 mi SSE 5.8 mph - N/A   Clear
5:55 AM 15.3 °F 6.6 °F 8.1 °F 73% 30.50 in 10.0 mi SSE 5.8 mph - N/A   Clear
6:15 AM 15.8 °F 7.2 °F 8.6 °F 73% 30.50 in 10.0 mi SE 5.8 mph - N/A   Clear
6:35 AM 15.6 °F 5.9 °F 8.6 °F 74% 30.50 in 10.0 mi SE 6.9 mph - N/A   Clear
6:55 AM 14.9 °F 7.5 °F 8.2 °F 75% 30.50 in 10.0 mi SE 4.6 mph - N/A   Clear
7:15 AM 15.8 °F 7.2 °F 8.6 °F 73% 30.49 in 10.0 mi ESE 5.8 mph - N/A   Clear
7:35 AM 15.4 °F 5.6 °F 8.6 °F 74% 30.49 in 10.0 mi SE 6.9 mph - N/A   Clear
7:55 AM 15.8 °F 8.6 °F 9.0 °F 74% 30.49 in 10.0 mi SE 4.6 mph - N/A   Clear
8:15 AM 18.5 °F 10.4 °F 10.4 °F 71% 30.49 in 10.0 mi SSE 5.8 mph - N/A   Clear
8:35 AM 21.0 °F 13.4 °F 11.5 °F 67% 30.49 in 10.0 mi SSE 5.8 mph - N/A   Clear
8:55 AM 23.4 °F 15.2 °F 12.7 °F 64% 30.49 in 10.0 mi SSE 6.9 mph - N/A   Clear
9:15 AM 27.5 °F 18.6 °F 15.3 °F 60% 30.49 in 10.0 mi South 9.2 mph - N/A   Clear
9:35 AM 29.5 °F 20.4 °F 13.6 °F 52% 30.49 in 10.0 mi South 10.4 mph - N/A   Clear
9:55 AM 33.3 °F 24.1 °F 13.5 °F 44% 30.49 in 10.0 mi South 12.7 mph - N/A   Clear
10:15 AM 33.4 °F 24.3 °F 10.9 °F 39% 30.49 in 10.0 mi South 12.7 mph - N/A   Clear
10:35 AM 35.8 °F 27.3 °F 10.8 °F 36% 30.49 in 10.0 mi South 12.7 mph - N/A   Clear
10:55 AM 38.3 °F 29.3 °F 9.9 °F 31% 30.48 in 10.0 mi SSW 16.1 mph - N/A   Clear
11:15 AM 39.2 °F 31.2 °F 7.3 °F 27% 30.47 in 10.0 mi SSW 13.8 mph - N/A   Clear
11:35 AM 41.0 °F 33.1 °F 5.7 °F 23% 30.45 in 10.0 mi SSW 15.0 mph 20.7 mph N/A   Clear
11:55 AM 42.1 °F 34.2 °F 4.3 °F 21% 30.43 in 10.0 mi SSW 16.1 mph - N/A   Clear
12:15 PM 43.2 °F 35.0 °F 4.1 °F 20% 30.41 in 10.0 mi South 18.4 mph 23.0 mph N/A   Clear
12:35 PM 45.7 °F 39.1 °F 5.2 °F 19% 30.39 in 10.0 mi South 15.0 mph - N/A   Clear
12:55 PM 45.9 °F 38.8 °F 3.4 °F 17% 30.37 in 10.0 mi South 17.3 mph - N/A   Clear
1:15 PM 47.3 °F - 1.9 °F 15% 30.36 in 10.0 mi South 17.3 mph - N/A   Clear
1:35 PM 48.4 °F - 1.4 °F 14% 30.35 in 10.0 mi South 17.3 mph 21.9 mph N/A   Clear
1:55 PM 48.4 °F - 1.9 °F 15% 30.34 in 10.0 mi South 18.4 mph - N/A   Clear
2:15 PM 48.4 °F - 2.7 °F 15% 30.34 in 10.0 mi South 18.4 mph 24.2 mph N/A   Clear
2:35 PM 48.4 °F - 3.9 °F 16% 30.32 in 10.0 mi SSE 18.4 mph - N/A   Clear
2:55 PM 48.4 °F - 3.9 °F 16% 30.32 in 10.0 mi South 16.1 mph - N/A   Clear
3:15 PM 48.4 °F - 4.6 °F 17% 30.31 in 10.0 mi South 15.0 mph - N/A   Clear
3:35 PM 48.4 °F - 5.2 °F 17% 30.31 in 10.0 mi SSE 13.8 mph 23.0 mph N/A   Clear
3:55 PM 48.4 °F - 4.3 °F 16% 30.31 in 10.0 mi South 18.4 mph 23.0 mph N/A   Clear
4:15 PM 48.4 °F - 4.3 °F 16% 30.30 in 10.0 mi SSE 13.8 mph - N/A   Clear
4:35 PM 48.4 °F - 5.0 °F 17% 30.30 in 10.0 mi SSE 17.3 mph 21.9 mph N/A   Clear
4:55 PM 45.9 °F 40.0 °F 4.5 °F 18% 30.30 in 10.0 mi SSE 12.7 mph - N/A   Clear
5:15 PM 43.3 °F 36.8 °F 3.4 °F 19% 30.28 in 10.0 mi SSE 12.7 mph - N/A   Clear
5:35 PM 41.0 °F 34.3 °F 5.0 °F 23% 30.28 in 10.0 mi SSE 11.5 mph - N/A   Clear
5:55 PM 39.6 °F 32.5 °F 6.4 °F 25% 30.28 in 10.0 mi SSE 11.5 mph - N/A   Clear
6:15 PM 38.7 °F 31.4 °F 9.0 °F 29% 30.28 in 10.0 mi SSE 11.5 mph - N/A   Clear
6:35 PM 38.3 °F 30.9 °F 10.6 °F 32% 30.29 in 10.0 mi SSE 11.5 mph - N/A   Clear
6:55 PM 38.3 °F 30.1 °F 10.0 °F 31% 30.28 in 10.0 mi SSE 13.8 mph - N/A   Clear
7:15 PM 38.3 °F 30.1 °F 6.6 °F 27% 30.28 in 10.0 mi SSE 13.8 mph - N/A   Clear
7:35 PM 37.4 °F 28.5 °F 6.3 °F 27% 30.28 in 10.0 mi SSE 15.0 mph - N/A   Clear
7:55 PM 35.8 °F 27.8 °F 5.5 °F 28% 30.29 in 10.0 mi SSE 11.5 mph - N/A   Clear
8:15 PM 35.8 °F 27.8 °F 6.4 °F 29% 30.30 in 10.0 mi SSE 11.5 mph - N/A   Clear
8:35 PM 35.6 °F 28.0 °F 7.7 °F 31% 30.30 in 10.0 mi SSE 10.4 mph - N/A   Clear
8:55 PM 34.3 °F 25.9 °F 7.9 °F 33% 30.30 in 10.0 mi SSE 11.5 mph - N/A   Clear
9:15 PM 33.3 °F 24.6 °F 7.7 °F 34% 30.29 in 10.0 mi SSE 11.5 mph - N/A   Clear
9:35 PM 33.3 °F 23.7 °F 8.4 °F 35% 30.28 in 10.0 mi SSE 13.8 mph - N/A   Clear
9:55 PM 33.3 °F 23.7 °F 9.3 °F 37% 30.27 in 10.0 mi SSE 13.8 mph - N/A   Clear
10:15 PM 34.5 °F 24.8 °F 9.1 °F 35% 30.28 in 10.0 mi SSE 15.0 mph - N/A   Clear
10:35 PM 33.4 °F 23.9 °F 7.9 °F 34% 30.28 in 10.0 mi SSE 13.8 mph 18.4 mph N/A   Clear
10:55 PM 33.3 °F 23.7 °F 7.9 °F 35% 30.27 in 10.0 mi SSE 13.8 mph - N/A   Clear
11:15 PM 33.3 °F 24.1 °F 8.4 °F 35% 30.27 in 10.0 mi SSE 12.7 mph - N/A   Clear
11:35 PM 33.3 °F 24.1 °F 9.0 °F 36% 30.26 in 10.0 mi SSE 12.7 mph - N/A   Clear
11:55 PM 33.3 °F 24.6 °F 10.4 °F 39% 30.26 in 10.0 mi SSE 11.5 mph - N/A   Clear